sensor_id;sensor_type;location;lat;lon;timestamp;P1;durP1;ratioP1;P2;durP2;ratioP2
26820;SDS011;37186;51.394;5.454;2023-03-14T00:01:36;4.10;;;4.00;;
26820;SDS011;37186;51.394;5.454;2023-03-14T00:04:36;3.90;;;3.80;;
26820;SDS011;37186;51.394;5.454;2023-03-14T00:07:37;3.75;;;3.65;;
26820;SDS011;37186;51.394;5.454;2023-03-14T00:10:39;3.60;;;3.50;;
26820;SDS011;37186;51.394;5.454;2023-03-14T00:13:40;3.90;;;3.80;;
26820;SDS011;37186;51.394;5.454;2023-03-14T00:16:40;3.60;;;3.50;;
26820;SDS011;37186;51.394;5.454;2023-03-14T00:19:41;3.53;;;3.43;;
26820;SDS011;37186;51.394;5.454;2023-03-14T00:22:41;3.33;;;3.23;;
26820;SDS011;37186;51.394;5.454;2023-03-14T00:25:42;4.63;;;4.53;;
26820;SDS011;37186;51.394;5.454;2023-03-14T00:28:43;4.63;;;4.53;;
26820;SDS011;37186;51.394;5.454;2023-03-14T00:31:43;4.28;;;4.18;;
26820;SDS011;37186;51.394;5.454;2023-03-14T00:34:44;4.23;;;4.13;;
26820;SDS011;37186;51.394;5.454;2023-03-14T00:37:45;4.07;;;3.97;;
26820;SDS011;37186;51.394;5.454;2023-03-14T00:40:45;4.17;;;4.07;;
26820;SDS011;37186;51.394;5.454;2023-03-14T00:43:46;4.13;;;4.03;;
26820;SDS011;37186;51.394;5.454;2023-03-14T00:46:46;4.07;;;3.97;;
26820;SDS011;37186;51.394;5.454;2023-03-14T00:49:47;4.00;;;3.90;;
26820;SDS011;37186;51.394;5.454;2023-03-14T00:52:47;3.90;;;3.80;;
26820;SDS011;37186;51.394;5.454;2023-03-14T00:55:48;3.93;;;3.83;;
26820;SDS011;37186;51.394;5.454;2023-03-14T00:58:52;3.67;;;3.57;;
26820;SDS011;37186;51.394;5.454;2023-03-14T01:01:54;3.80;;;3.70;;
26820;SDS011;37186;51.394;5.454;2023-03-14T01:04:54;3.43;;;3.33;;
26820;SDS011;37186;51.394;5.454;2023-03-14T01:07:55;3.60;;;3.50;;
26820;SDS011;37186;51.394;5.454;2023-03-14T01:10:55;3.70;;;3.60;;
26820;SDS011;37186;51.394;5.454;2023-03-14T01:13:56;3.93;;;3.83;;
26820;SDS011;37186;51.394;5.454;2023-03-14T01:17:00;3.70;;;3.60;;
26820;SDS011;37186;51.394;5.454;2023-03-14T01:20:01;3.60;;;3.50;;
26820;SDS011;37186;51.394;5.454;2023-03-14T01:23:02;3.47;;;3.37;;
26820;SDS011;37186;51.394;5.454;2023-03-14T01:26:02;3.63;;;3.53;;
26820;SDS011;37186;51.394;5.454;2023-03-14T01:29:03;3.67;;;3.57;;
26820;SDS011;37186;51.394;5.454;2023-03-14T01:32:04;3.57;;;3.47;;
26820;SDS011;37186;51.394;5.454;2023-03-14T01:35:05;3.90;;;3.80;;
26820;SDS011;37186;51.394;5.454;2023-03-14T01:38:06;3.63;;;3.53;;
26820;SDS011;37186;51.394;5.454;2023-03-14T01:41:07;3.60;;;3.50;;
26820;SDS011;37186;51.394;5.454;2023-03-14T01:44:11;3.60;;;3.50;;
26820;SDS011;37186;51.394;5.454;2023-03-14T01:47:12;3.53;;;3.43;;
26820;SDS011;37186;51.394;5.454;2023-03-14T01:50:13;3.50;;;3.40;;
26820;SDS011;37186;51.394;5.454;2023-03-14T01:53:13;3.50;;;3.40;;
26820;SDS011;37186;51.394;5.454;2023-03-14T01:56:15;3.40;;;3.30;;
26820;SDS011;37186;51.394;5.454;2023-03-14T01:59:17;3.57;;;3.47;;
26820;SDS011;37186;51.394;5.454;2023-03-14T02:02:18;3.43;;;3.33;;
26820;SDS011;37186;51.394;5.454;2023-03-14T02:05:21;3.40;;;3.30;;
26820;SDS011;37186;51.394;5.454;2023-03-14T02:08:24;3.40;;;3.30;;
26820;SDS011;37186;51.394;5.454;2023-03-14T02:11:28;3.37;;;3.27;;
26820;SDS011;37186;51.394;5.454;2023-03-14T02:14:31;3.50;;;3.40;;
26820;SDS011;37186;51.394;5.454;2023-03-14T02:17:34;3.30;;;3.20;;
26820;SDS011;37186;51.394;5.454;2023-03-14T02:24:12;3.37;;;3.27;;
26820;SDS011;37186;51.394;5.454;2023-03-14T02:27:20;3.20;;;3.10;;
26820;SDS011;37186;51.394;5.454;2023-03-14T02:30:25;3.30;;;3.20;;
26820;SDS011;37186;51.394;5.454;2023-03-14T02:33:27;3.20;;;3.10;;
26820;SDS011;37186;51.394;5.454;2023-03-14T02:36:28;3.33;;;3.23;;
26820;SDS011;37186;51.394;5.454;2023-03-14T02:39:36;3.10;;;3.00;;
26820;SDS011;37186;51.394;5.454;2023-03-14T02:42:39;3.50;;;3.40;;
26820;SDS011;37186;51.394;5.454;2023-03-14T02:45:41;3.33;;;3.23;;
26820;SDS011;37186;51.394;5.454;2023-03-14T02:48:51;3.40;;;3.30;;
26820;SDS011;37186;51.394;5.454;2023-03-14T02:51:57;3.37;;;3.27;;
26820;SDS011;37186;51.394;5.454;2023-03-14T02:54:57;3.37;;;3.27;;
26820;SDS011;37186;51.394;5.454;2023-03-14T02:57:58;3.77;;;3.67;;
26820;SDS011;37186;51.394;5.454;2023-03-14T03:00:58;3.43;;;3.33;;
26820;SDS011;37186;51.394;5.454;2023-03-14T03:03:59;3.63;;;3.53;;
26820;SDS011;37186;51.394;5.454;2023-03-14T03:07:00;3.50;;;3.40;;
26820;SDS011;37186;51.394;5.454;2023-03-14T03:10:00;3.33;;;3.23;;
26820;SDS011;37186;51.394;5.454;2023-03-14T03:13:01;3.60;;;3.50;;
26820;SDS011;37186;51.394;5.454;2023-03-14T03:16:02;3.67;;;3.57;;
26820;SDS011;37186;51.394;5.454;2023-03-14T03:19:03;3.30;;;3.20;;
26820;SDS011;37186;51.394;5.454;2023-03-14T03:22:03;3.60;;;3.50;;
26820;SDS011;37186;51.394;5.454;2023-03-14T03:25:06;3.70;;;3.60;;
26820;SDS011;37186;51.394;5.454;2023-03-14T03:28:07;3.33;;;3.23;;
26820;SDS011;37186;51.394;5.454;2023-03-14T03:31:08;3.53;;;3.43;;
26820;SDS011;37186;51.394;5.454;2023-03-14T03:34:10;3.43;;;3.33;;
26820;SDS011;37186;51.394;5.454;2023-03-14T03:37:10;3.60;;;3.50;;
26820;SDS011;37186;51.394;5.454;2023-03-14T03:40:11;3.47;;;3.37;;
26820;SDS011;37186;51.394;5.454;2023-03-14T03:43:11;3.40;;;3.30;;
26820;SDS011;37186;51.394;5.454;2023-03-14T03:46:12;3.17;;;3.07;;
26820;SDS011;37186;51.394;5.454;2023-03-14T03:49:13;3.33;;;3.23;;
26820;SDS011;37186;51.394;5.454;2023-03-14T03:52:13;3.27;;;3.17;;
26820;SDS011;37186;51.394;5.454;2023-03-14T03:55:14;3.30;;;3.20;;
26820;SDS011;37186;51.394;5.454;2023-03-14T03:58:14;3.30;;;3.20;;
26820;SDS011;37186;51.394;5.454;2023-03-14T04:01:15;3.23;;;3.13;;
26820;SDS011;37186;51.394;5.454;2023-03-14T04:04:15;3.30;;;3.20;;
26820;SDS011;37186;51.394;5.454;2023-03-14T04:07:16;3.13;;;3.03;;
26820;SDS011;37186;51.394;5.454;2023-03-14T04:10:16;3.40;;;3.30;;
26820;SDS011;37186;51.394;5.454;2023-03-14T04:13:17;3.00;;;2.90;;
26820;SDS011;37186;51.394;5.454;2023-03-14T04:16:19;3.10;;;3.00;;
26820;SDS011;37186;51.394;5.454;2023-03-14T04:19:21;3.30;;;3.20;;
26820;SDS011;37186;51.394;5.454;2023-03-14T04:22:22;3.20;;;3.10;;
26820;SDS011;37186;51.394;5.454;2023-03-14T04:25:22;3.23;;;3.13;;
26820;SDS011;37186;51.394;5.454;2023-03-14T04:28:23;3.20;;;3.10;;
26820;SDS011;37186;51.394;5.454;2023-03-14T04:31:23;3.10;;;3.00;;
26820;SDS011;37186;51.394;5.454;2023-03-14T04:34:24;3.27;;;3.17;;
26820;SDS011;37186;51.394;5.454;2023-03-14T04:37:24;3.30;;;3.20;;
26820;SDS011;37186;51.394;5.454;2023-03-14T04:40:25;3.67;;;3.57;;
26820;SDS011;37186;51.394;5.454;2023-03-14T04:43:26;3.60;;;3.50;;
26820;SDS011;37186;51.394;5.454;2023-03-14T04:46:27;3.43;;;3.33;;
26820;SDS011;37186;51.394;5.454;2023-03-14T04:49:27;3.80;;;3.70;;
26820;SDS011;37186;51.394;5.454;2023-03-14T04:52:28;3.60;;;3.50;;
26820;SDS011;37186;51.394;5.454;2023-03-14T04:55:28;3.90;;;3.80;;
26820;SDS011;37186;51.394;5.454;2023-03-14T04:58:29;4.10;;;4.00;;
26820;SDS011;37186;51.394;5.454;2023-03-14T05:01:30;4.17;;;4.07;;
26820;SDS011;37186;51.394;5.454;2023-03-14T05:04:30;4.30;;;4.20;;
26820;SDS011;37186;51.394;5.454;2023-03-14T05:07:32;4.27;;;4.17;;
26820;SDS011;37186;51.394;5.454;2023-03-14T05:10:33;4.70;;;4.60;;
26820;SDS011;37186;51.394;5.454;2023-03-14T05:13:33;4.70;;;4.60;;
26820;SDS011;37186;51.394;5.454;2023-03-14T05:16:34;4.50;;;4.40;;
26820;SDS011;37186;51.394;5.454;2023-03-14T05:19:35;4.57;;;4.47;;
26820;SDS011;37186;51.394;5.454;2023-03-14T05:22:35;4.80;;;4.70;;
26820;SDS011;37186;51.394;5.454;2023-03-14T05:25:36;4.90;;;4.80;;
26820;SDS011;37186;51.394;5.454;2023-03-14T05:28:36;5.17;;;5.07;;
26820;SDS011;37186;51.394;5.454;2023-03-14T05:31:37;5.90;;;5.70;;
26820;SDS011;37186;51.394;5.454;2023-03-14T05:34:37;5.87;;;5.67;;
26820;SDS011;37186;51.394;5.454;2023-03-14T05:37:38;6.00;;;5.80;;
26820;SDS011;37186;51.394;5.454;2023-03-14T05:40:39;6.00;;;5.80;;
26820;SDS011;37186;51.394;5.454;2023-03-14T05:43:39;6.00;;;5.80;;
26820;SDS011;37186;51.394;5.454;2023-03-14T05:46:40;5.80;;;5.63;;
26820;SDS011;37186;51.394;5.454;2023-03-14T05:49:40;4.00;;;3.90;;
26820;SDS011;37186;51.394;5.454;2023-03-14T05:52:41;5.17;;;5.07;;
26820;SDS011;37186;51.394;5.454;2023-03-14T05:55:41;4.97;;;4.87;;
26820;SDS011;37186;51.394;5.454;2023-03-14T05:58:42;5.10;;;5.00;;
26820;SDS011;37186;51.394;5.454;2023-03-14T06:01:42;5.20;;;5.10;;
26820;SDS011;37186;51.394;5.454;2023-03-14T06:04:43;5.20;;;5.10;;
26820;SDS011;37186;51.394;5.454;2023-03-14T06:07:44;5.50;;;5.40;;
26820;SDS011;37186;51.394;5.454;2023-03-14T06:10:44;5.37;;;5.27;;
26820;SDS011;37186;51.394;5.454;2023-03-14T06:13:45;5.00;;;4.90;;
26820;SDS011;37186;51.394;5.454;2023-03-14T06:16:46;4.67;;;4.57;;
26820;SDS011;37186;51.394;5.454;2023-03-14T06:19:48;4.53;;;4.43;;
26820;SDS011;37186;51.394;5.454;2023-03-14T06:22:49;4.43;;;4.33;;
26820;SDS011;37186;51.394;5.454;2023-03-14T06:25:49;3.77;;;3.67;;
26820;SDS011;37186;51.394;5.454;2023-03-14T06:28:50;4.47;;;4.37;;
26820;SDS011;37186;51.394;5.454;2023-03-14T06:31:51;4.17;;;4.07;;
26820;SDS011;37186;51.394;5.454;2023-03-14T06:34:52;3.73;;;3.63;;
26820;SDS011;37186;51.394;5.454;2023-03-14T06:37:53;3.50;;;3.40;;
26820;SDS011;37186;51.394;5.454;2023-03-14T06:40:53;3.60;;;3.50;;
26820;SDS011;37186;51.394;5.454;2023-03-14T06:43:54;3.83;;;3.73;;
26820;SDS011;37186;51.394;5.454;2023-03-14T06:46:54;3.60;;;3.50;;
26820;SDS011;37186;51.394;5.454;2023-03-14T06:49:55;3.90;;;3.80;;
26820;SDS011;37186;51.394;5.454;2023-03-14T06:52:55;3.60;;;3.50;;
26820;SDS011;37186;51.394;5.454;2023-03-14T06:55:56;3.43;;;3.33;;
26820;SDS011;37186;51.394;5.454;2023-03-14T06:58:56;3.43;;;3.33;;
26820;SDS011;37186;51.394;5.454;2023-03-14T07:01:57;3.10;;;3.00;;
26820;SDS011;37186;51.394;5.454;2023-03-14T07:04:57;3.10;;;3.00;;
26820;SDS011;37186;51.394;5.454;2023-03-14T07:07:58;3.30;;;3.20;;
26820;SDS011;37186;51.394;5.454;2023-03-14T07:10:58;3.50;;;3.40;;
26820;SDS011;37186;51.394;5.454;2023-03-14T07:13:59;3.13;;;3.03;;
26820;SDS011;37186;51.394;5.454;2023-03-14T07:16:59;3.00;;;2.90;;
26820;SDS011;37186;51.394;5.454;2023-03-14T07:20:00;3.10;;;3.00;;
26820;SDS011;37186;51.394;5.454;2023-03-14T07:23:01;3.20;;;3.10;;
26820;SDS011;37186;51.394;5.454;2023-03-14T07:26:03;3.27;;;3.17;;
26820;SDS011;37186;51.394;5.454;2023-03-14T07:29:04;3.33;;;3.23;;
26820;SDS011;37186;51.394;5.454;2023-03-14T07:32:04;3.27;;;3.17;;
26820;SDS011;37186;51.394;5.454;2023-03-14T07:35:05;3.83;;;3.73;;
26820;SDS011;37186;51.394;5.454;2023-03-14T07:38:06;3.60;;;3.50;;
26820;SDS011;37186;51.394;5.454;2023-03-14T07:41:07;4.00;;;3.90;;
26820;SDS011;37186;51.394;5.454;2023-03-14T07:44:08;3.80;;;3.70;;
26820;SDS011;37186;51.394;5.454;2023-03-14T07:47:08;3.77;;;3.67;;
26820;SDS011;37186;51.394;5.454;2023-03-14T07:50:09;3.60;;;3.50;;
26820;SDS011;37186;51.394;5.454;2023-03-14T07:53:10;3.47;;;3.37;;
26820;SDS011;37186;51.394;5.454;2023-03-14T07:56:11;3.43;;;3.33;;
26820;SDS011;37186;51.394;5.454;2023-03-14T07:59:11;3.40;;;3.30;;
26820;SDS011;37186;51.394;5.454;2023-03-14T08:02:12;3.50;;;3.40;;
26820;SDS011;37186;51.394;5.454;2023-03-14T08:05:13;3.50;;;3.40;;
26820;SDS011;37186;51.394;5.454;2023-03-14T08:08:14;3.30;;;3.20;;
26820;SDS011;37186;51.394;5.454;2023-03-14T08:11:14;3.20;;;3.10;;
26820;SDS011;37186;51.394;5.454;2023-03-14T08:14:15;4.00;;;3.90;;
26820;SDS011;37186;51.394;5.454;2023-03-14T08:17:15;4.00;;;3.90;;
26820;SDS011;37186;51.394;5.454;2023-03-14T08:20:16;4.00;;;3.90;;
26820;SDS011;37186;51.394;5.454;2023-03-14T08:23:18;4.53;;;4.43;;
26820;SDS011;37186;51.394;5.454;2023-03-14T08:26:18;4.70;;;4.60;;
26820;SDS011;37186;51.394;5.454;2023-03-14T08:29:19;4.40;;;4.30;;
26820;SDS011;37186;51.394;5.454;2023-03-14T08:32:19;4.80;;;4.70;;
26820;SDS011;37186;51.394;5.454;2023-03-14T08:35:20;4.73;;;4.63;;
26820;SDS011;37186;51.394;5.454;2023-03-14T08:38:21;5.00;;;4.90;;
26820;SDS011;37186;51.394;5.454;2023-03-14T08:41:21;5.17;;;5.07;;
26820;SDS011;37186;51.394;5.454;2023-03-14T08:44:23;4.20;;;4.10;;
26820;SDS011;37186;51.394;5.454;2023-03-14T08:47:23;4.07;;;3.97;;
26820;SDS011;37186;51.394;5.454;2023-03-14T08:50:24;3.77;;;3.67;;
26820;SDS011;37186;51.394;5.454;2023-03-14T08:53:25;4.17;;;4.07;;
26820;SDS011;37186;51.394;5.454;2023-03-14T08:56:25;4.30;;;4.20;;
26820;SDS011;37186;51.394;5.454;2023-03-14T08:59:26;4.33;;;4.23;;
26820;SDS011;37186;51.394;5.454;2023-03-14T09:02:26;4.50;;;4.40;;
26820;SDS011;37186;51.394;5.454;2023-03-14T09:05:27;4.57;;;4.47;;
26820;SDS011;37186;51.394;5.454;2023-03-14T09:08:27;5.20;;;5.10;;
26820;SDS011;37186;51.394;5.454;2023-03-14T09:11:28;5.23;;;5.13;;
26820;SDS011;37186;51.394;5.454;2023-03-14T09:14:29;5.37;;;5.27;;
26820;SDS011;37186;51.394;5.454;2023-03-14T09:17:29;5.33;;;5.23;;
26820;SDS011;37186;51.394;5.454;2023-03-14T09:20:30;5.70;;;5.60;;
26820;SDS011;37186;51.394;5.454;2023-03-14T09:23:30;5.97;;;5.77;;
26820;SDS011;37186;51.394;5.454;2023-03-14T09:26:31;6.23;;;6.03;;
26820;SDS011;37186;51.394;5.454;2023-03-14T09:29:32;6.00;;;5.80;;
26820;SDS011;37186;51.394;5.454;2023-03-14T09:32:32;4.93;;;4.83;;
26820;SDS011;37186;51.394;5.454;2023-03-14T09:35:33;4.87;;;4.77;;
26820;SDS011;37186;51.394;5.454;2023-03-14T09:38:34;4.93;;;4.83;;
26820;SDS011;37186;51.394;5.454;2023-03-14T09:41:36;4.97;;;4.87;;
26820;SDS011;37186;51.394;5.454;2023-03-14T09:44:51;4.03;;;3.93;;
26820;SDS011;37186;51.394;5.454;2023-03-14T09:47:56;4.03;;;3.93;;
26820;SDS011;37186;51.394;5.454;2023-03-14T09:50:59;4.07;;;3.97;;
26820;SDS011;37186;51.394;5.454;2023-03-14T09:54:04;4.10;;;4.00;;
26820;SDS011;37186;51.394;5.454;2023-03-14T09:57:11;3.90;;;3.80;;
26820;SDS011;37186;51.394;5.454;2023-03-14T10:00:18;3.77;;;3.67;;
26820;SDS011;37186;51.394;5.454;2023-03-14T10:03:26;3.87;;;3.77;;
26820;SDS011;37186;51.394;5.454;2023-03-14T10:06:33;4.63;;;4.53;;
26820;SDS011;37186;51.394;5.454;2023-03-14T10:09:35;4.50;;;4.40;;
26820;SDS011;37186;51.394;5.454;2023-03-14T10:12:36;4.67;;;4.57;;
26820;SDS011;37186;51.394;5.454;2023-03-14T10:15:38;5.20;;;5.10;;
26820;SDS011;37186;51.394;5.454;2023-03-14T10:18:39;5.23;;;5.13;;
26820;SDS011;37186;51.394;5.454;2023-03-14T10:21:52;5.50;;;5.40;;
26820;SDS011;37186;51.394;5.454;2023-03-14T10:24:55;5.60;;;5.50;;
26820;SDS011;37186;51.394;5.454;2023-03-14T10:27:59;5.50;;;5.40;;
26820;SDS011;37186;51.394;5.454;2023-03-14T10:31:00;5.47;;;5.37;;
26820;SDS011;37186;51.394;5.454;2023-03-14T10:34:03;5.27;;;5.17;;
26820;SDS011;37186;51.394;5.454;2023-03-14T10:37:15;5.30;;;5.20;;
26820;SDS011;37186;51.394;5.454;2023-03-14T10:40:18;5.73;;;5.60;;
26820;SDS011;37186;51.394;5.454;2023-03-14T10:43:28;5.97;;;5.77;;
26820;SDS011;37186;51.394;5.454;2023-03-14T10:46:32;6.17;;;5.97;;
26820;SDS011;37186;51.394;5.454;2023-03-14T10:49:34;6.10;;;5.90;;
26820;SDS011;37186;51.394;5.454;2023-03-14T10:52:36;6.30;;;6.10;;
26820;SDS011;37186;51.394;5.454;2023-03-14T10:55:48;5.97;;;5.77;;
26820;SDS011;37186;51.394;5.454;2023-03-14T10:58:50;6.37;;;6.17;;
26820;SDS011;37186;51.394;5.454;2023-03-14T11:08:18;5.10;;;5.00;;
26820;SDS011;37186;51.394;5.454;2023-03-14T11:11:26;5.03;;;4.93;;
26820;SDS011;37186;51.394;5.454;2023-03-14T11:14:32;4.50;;;4.40;;
26820;SDS011;37186;51.394;5.454;2023-03-14T11:17:50;4.67;;;4.57;;
26820;SDS011;37186;51.394;5.454;2023-03-14T11:24:58;4.27;;;4.17;;
26820;SDS011;37186;51.394;5.454;2023-03-14T11:28:18;4.33;;;4.23;;
26820;SDS011;37186;51.394;5.454;2023-03-14T11:31:29;4.07;;;3.97;;
26820;SDS011;37186;51.394;5.454;2023-03-14T11:34:40;4.57;;;4.47;;
26820;SDS011;37186;51.394;5.454;2023-03-14T11:37:51;4.43;;;4.33;;
26820;SDS011;37186;51.394;5.454;2023-03-14T11:41:01;4.90;;;4.80;;
26820;SDS011;37186;51.394;5.454;2023-03-14T11:44:03;4.77;;;4.67;;
26820;SDS011;37186;51.394;5.454;2023-03-14T11:47:15;5.07;;;4.97;;
26820;SDS011;37186;51.394;5.454;2023-03-14T11:50:34;4.73;;;4.63;;
26820;SDS011;37186;51.394;5.454;2023-03-14T11:53:41;5.60;;;5.50;;
26820;SDS011;37186;51.394;5.454;2023-03-14T11:57:03;5.30;;;5.20;;
26820;SDS011;37186;51.394;5.454;2023-03-14T12:00:19;5.57;;;5.47;;
26820;SDS011;37186;51.394;5.454;2023-03-14T12:06:59;5.07;;;4.97;;
26820;SDS011;37186;51.394;5.454;2023-03-14T12:10:08;5.03;;;4.93;;
26820;SDS011;37186;51.394;5.454;2023-03-14T12:13:10;4.70;;;4.60;;
26820;SDS011;37186;51.394;5.454;2023-03-14T12:16:27;5.10;;;5.00;;
26820;SDS011;37186;51.394;5.454;2023-03-14T12:19:35;4.70;;;4.60;;
26820;SDS011;37186;51.394;5.454;2023-03-14T12:22:51;5.20;;;5.10;;
26820;SDS011;37186;51.394;5.454;2023-03-14T12:29:15;5.10;;;5.00;;
26820;SDS011;37186;51.394;5.454;2023-03-14T12:32:23;5.30;;;5.20;;
26820;SDS011;37186;51.394;5.454;2023-03-14T12:35:37;5.03;;;4.93;;
26820;SDS011;37186;51.394;5.454;2023-03-14T12:38:59;4.90;;;4.80;;
26820;SDS011;37186;51.394;5.454;2023-03-14T12:45:26;4.43;;;4.33;;
26820;SDS011;37186;51.394;5.454;2023-03-14T12:48:35;4.53;;;4.43;;
26820;SDS011;37186;51.394;5.454;2023-03-14T12:51:39;4.77;;;4.67;;
26820;SDS011;37186;51.394;5.454;2023-03-14T12:54:44;5.17;;;5.07;;
26820;SDS011;37186;51.394;5.454;2023-03-14T12:58:08;5.40;;;5.30;;
26820;SDS011;37186;51.394;5.454;2023-03-14T13:01:23;5.23;;;5.13;;
26820;SDS011;37186;51.394;5.454;2023-03-14T13:10:57;4.70;;;4.60;;
26820;SDS011;37186;51.394;5.454;2023-03-14T13:13:57;4.37;;;4.27;;
26820;SDS011;37186;51.394;5.454;2023-03-14T13:16:59;5.00;;;4.90;;
26820;SDS011;37186;51.394;5.454;2023-03-14T13:20:02;4.40;;;4.30;;
26820;SDS011;37186;51.394;5.454;2023-03-14T13:23:20;4.20;;;4.10;;
26820;SDS011;37186;51.394;5.454;2023-03-14T13:26:31;3.87;;;3.77;;
26820;SDS011;37186;51.394;5.454;2023-03-14T13:29:34;4.17;;;4.07;;
26820;SDS011;37186;51.394;5.454;2023-03-14T13:32:39;3.50;;;3.40;;
26820;SDS011;37186;51.394;5.454;2023-03-14T13:35:44;3.40;;;3.30;;
26820;SDS011;37186;51.394;5.454;2023-03-14T13:38:46;3.67;;;3.57;;
26820;SDS011;37186;51.394;5.454;2023-03-14T13:42:00;3.87;;;3.77;;
26820;SDS011;37186;51.394;5.454;2023-03-14T13:45:01;3.70;;;3.60;;
26820;SDS011;37186;51.394;5.454;2023-03-14T13:48:03;3.50;;;3.40;;
26820;SDS011;37186;51.394;5.454;2023-03-14T13:51:04;4.10;;;4.00;;
26820;SDS011;37186;51.394;5.454;2023-03-14T13:54:14;3.93;;;3.83;;
26820;SDS011;37186;51.394;5.454;2023-03-14T13:57:16;4.30;;;4.20;;
26820;SDS011;37186;51.394;5.454;2023-03-14T14:00:26;4.50;;;4.40;;
26820;SDS011;37186;51.394;5.454;2023-03-14T14:03:28;4.47;;;4.37;;
26820;SDS011;37186;51.394;5.454;2023-03-14T14:06:37;4.73;;;4.63;;
26820;SDS011;37186;51.394;5.454;2023-03-14T14:09:43;4.70;;;4.60;;
26820;SDS011;37186;51.394;5.454;2023-03-14T14:13:06;5.00;;;4.90;;
26820;SDS011;37186;51.394;5.454;2023-03-14T14:16:11;4.63;;;4.53;;
26820;SDS011;37186;51.394;5.454;2023-03-14T14:19:12;4.97;;;4.87;;
26820;SDS011;37186;51.394;5.454;2023-03-14T14:22:14;4.10;;;4.00;;
26820;SDS011;37186;51.394;5.454;2023-03-14T14:25:15;3.90;;;3.80;;
26820;SDS011;37186;51.394;5.454;2023-03-14T14:28:32;3.87;;;3.77;;
26820;SDS011;37186;51.394;5.454;2023-03-14T14:31:38;3.90;;;3.80;;
26820;SDS011;37186;51.394;5.454;2023-03-14T14:34:45;3.93;;;3.83;;
26820;SDS011;37186;51.394;5.454;2023-03-14T14:37:55;3.67;;;3.57;;
26820;SDS011;37186;51.394;5.454;2023-03-14T14:40:59;4.47;;;4.37;;
26820;SDS011;37186;51.394;5.454;2023-03-14T14:44:03;3.67;;;3.57;;
26820;SDS011;37186;51.394;5.454;2023-03-14T14:47:04;4.43;;;4.33;;
26820;SDS011;37186;51.394;5.454;2023-03-14T14:50:19;4.37;;;4.27;;
26820;SDS011;37186;51.394;5.454;2023-03-14T14:53:40;3.80;;;3.70;;
26820;SDS011;37186;51.394;5.454;2023-03-14T14:56:52;3.70;;;3.60;;
26820;SDS011;37186;51.394;5.454;2023-03-14T14:59:54;3.60;;;3.50;;
26820;SDS011;37186;51.394;5.454;2023-03-14T15:02:58;3.67;;;3.57;;
26820;SDS011;37186;51.394;5.454;2023-03-14T15:06:01;3.70;;;3.60;;
26820;SDS011;37186;51.394;5.454;2023-03-14T15:09:02;3.53;;;3.43;;
26820;SDS011;37186;51.394;5.454;2023-03-14T15:12:04;3.63;;;3.53;;
26820;SDS011;37186;51.394;5.454;2023-03-14T15:15:06;3.80;;;3.70;;
26820;SDS011;37186;51.394;5.454;2023-03-14T15:18:11;3.80;;;3.70;;
26820;SDS011;37186;51.394;5.454;2023-03-14T15:21:17;4.10;;;4.00;;
26820;SDS011;37186;51.394;5.454;2023-03-14T15:24:17;4.10;;;4.00;;
26820;SDS011;37186;51.394;5.454;2023-03-14T15:27:18;4.10;;;4.00;;
26820;SDS011;37186;51.394;5.454;2023-03-14T15:30:18;3.83;;;3.73;;
26820;SDS011;37186;51.394;5.454;2023-03-14T15:33:20;3.83;;;3.73;;
26820;SDS011;37186;51.394;5.454;2023-03-14T15:36:28;3.93;;;3.83;;
26820;SDS011;37186;51.394;5.454;2023-03-14T15:39:30;4.00;;;3.90;;
26820;SDS011;37186;51.394;5.454;2023-03-14T15:42:31;3.90;;;3.80;;
26820;SDS011;37186;51.394;5.454;2023-03-14T15:45:31;3.97;;;3.87;;
26820;SDS011;37186;51.394;5.454;2023-03-14T15:48:32;3.83;;;3.73;;
26820;SDS011;37186;51.394;5.454;2023-03-14T15:51:33;4.10;;;4.00;;
26820;SDS011;37186;51.394;5.454;2023-03-14T15:54:34;3.97;;;3.87;;
26820;SDS011;37186;51.394;5.454;2023-03-14T15:57:34;4.30;;;4.20;;
26820;SDS011;37186;51.394;5.454;2023-03-14T16:00:35;4.07;;;3.97;;
26820;SDS011;37186;51.394;5.454;2023-03-14T16:03:37;3.70;;;3.60;;
26820;SDS011;37186;51.394;5.454;2023-03-14T16:06:38;3.93;;;3.83;;
26820;SDS011;37186;51.394;5.454;2023-03-14T16:09:39;3.73;;;3.63;;
26820;SDS011;37186;51.394;5.454;2023-03-14T16:12:39;3.37;;;3.27;;
26820;SDS011;37186;51.394;5.454;2023-03-14T16:15:40;3.30;;;3.20;;
26820;SDS011;37186;51.394;5.454;2023-03-14T16:18:41;3.13;;;3.03;;
26820;SDS011;37186;51.394;5.454;2023-03-14T16:21:41;3.00;;;2.90;;
26820;SDS011;37186;51.394;5.454;2023-03-14T16:24:42;3.07;;;2.97;;
26820;SDS011;37186;51.394;5.454;2023-03-14T16:27:43;3.13;;;3.03;;
26820;SDS011;37186;51.394;5.454;2023-03-14T16:30:43;3.20;;;3.10;;
26820;SDS011;37186;51.394;5.454;2023-03-14T16:33:44;3.07;;;2.97;;
26820;SDS011;37186;51.394;5.454;2023-03-14T16:36:45;3.13;;;3.03;;
26820;SDS011;37186;51.394;5.454;2023-03-14T16:39:46;3.20;;;3.10;;
26820;SDS011;37186;51.394;5.454;2023-03-14T16:42:48;3.00;;;2.90;;
26820;SDS011;37186;51.394;5.454;2023-03-14T16:45:49;3.27;;;3.17;;
26820;SDS011;37186;51.394;5.454;2023-03-14T16:48:49;3.03;;;2.93;;
26820;SDS011;37186;51.394;5.454;2023-03-14T16:51:50;3.03;;;2.93;;
26820;SDS011;37186;51.394;5.454;2023-03-14T16:54:51;3.17;;;3.07;;
26820;SDS011;37186;51.394;5.454;2023-03-14T16:57:51;3.27;;;3.17;;
26820;SDS011;37186;51.394;5.454;2023-03-14T17:00:52;3.20;;;3.10;;
26820;SDS011;37186;51.394;5.454;2023-03-14T17:03:52;3.20;;;3.10;;
26820;SDS011;37186;51.394;5.454;2023-03-14T17:06:53;3.07;;;2.97;;
26820;SDS011;37186;51.394;5.454;2023-03-14T17:09:54;3.20;;;3.10;;
26820;SDS011;37186;51.394;5.454;2023-03-14T17:12:54;2.80;;;2.70;;
26820;SDS011;37186;51.394;5.454;2023-03-14T17:15:57;2.90;;;2.80;;
26820;SDS011;37186;51.394;5.454;2023-03-14T17:18:58;2.80;;;2.70;;
26820;SDS011;37186;51.394;5.454;2023-03-14T17:21:59;3.00;;;2.90;;
26820;SDS011;37186;51.394;5.454;2023-03-14T17:24:59;2.90;;;2.80;;
26820;SDS011;37186;51.394;5.454;2023-03-14T17:28:00;3.30;;;3.20;;
26820;SDS011;37186;51.394;5.454;2023-03-14T17:31:19;3.10;;;3.00;;
26820;SDS011;37186;51.394;5.454;2023-03-14T17:34:21;2.97;;;2.87;;
26820;SDS011;37186;51.394;5.454;2023-03-14T17:37:22;2.63;;;2.63;;
26820;SDS011;37186;51.394;5.454;2023-03-14T17:40:22;2.67;;;2.67;;
26820;SDS011;37186;51.394;5.454;2023-03-14T17:43:23;3.00;;;2.90;;
26820;SDS011;37186;51.394;5.454;2023-03-14T17:46:24;2.70;;;2.70;;
26820;SDS011;37186;51.394;5.454;2023-03-14T17:49:26;2.67;;;2.67;;
26820;SDS011;37186;51.394;5.454;2023-03-14T17:52:26;2.90;;;2.80;;
26820;SDS011;37186;51.394;5.454;2023-03-14T17:55:27;2.60;;;2.60;;
26820;SDS011;37186;51.394;5.454;2023-03-14T17:58:29;2.63;;;2.63;;
26820;SDS011;37186;51.394;5.454;2023-03-14T18:01:31;2.80;;;2.70;;
26820;SDS011;37186;51.394;5.454;2023-03-14T18:04:31;2.63;;;2.63;;
26820;SDS011;37186;51.394;5.454;2023-03-14T18:07:33;2.60;;;2.60;;
26820;SDS011;37186;51.394;5.454;2023-03-14T18:10:34;2.83;;;2.77;;
26820;SDS011;37186;51.394;5.454;2023-03-14T18:13:35;2.87;;;2.77;;
26820;SDS011;37186;51.394;5.454;2023-03-14T18:16:39;2.87;;;2.77;;
26820;SDS011;37186;51.394;5.454;2023-03-14T18:19:40;2.80;;;2.70;;
26820;SDS011;37186;51.394;5.454;2023-03-14T18:22:41;2.60;;;2.60;;
26820;SDS011;37186;51.394;5.454;2023-03-14T18:25:41;2.70;;;2.70;;
26820;SDS011;37186;51.394;5.454;2023-03-14T18:28:42;2.80;;;2.70;;
26820;SDS011;37186;51.394;5.454;2023-03-14T18:31:43;2.77;;;2.70;;
26820;SDS011;37186;51.394;5.454;2023-03-14T18:34:44;2.97;;;2.87;;
26820;SDS011;37186;51.394;5.454;2023-03-14T18:37:44;2.60;;;2.60;;
26820;SDS011;37186;51.394;5.454;2023-03-14T18:40:45;2.90;;;2.80;;
26820;SDS011;37186;51.394;5.454;2023-03-14T18:43:45;2.60;;;2.60;;
26820;SDS011;37186;51.394;5.454;2023-03-14T18:46:46;2.50;;;2.50;;
26820;SDS011;37186;51.394;5.454;2023-03-14T18:49:47;2.80;;;2.70;;
26820;SDS011;37186;51.394;5.454;2023-03-14T18:52:47;2.53;;;2.53;;